Impacts METAR Board
IDs:

KEWR - Newark Intl, NJ, US

Updated at: 1000 UTC 15 Dec 2018
Potential Impact None Slight Moderate High
Time 14/22Z 14/23Z 15/00Z 15/01Z 15/02Z 15/03Z 15/04Z 15/05Z 15/06Z 15/07Z 15/08Z 15/09Z 15/10Z
Temp49 49 49 48 48 48 48 49 48 48 48 48 48
Dewpt45 46 46 46 47 48 48 48 47 48 48 48 47
Altim30.34 30.34 30.33 30.31 30.30 30.29 30.27 30.24 30.22 30.22 30.21 30.20 30.17
VIS10 10 10 10 7 6 5 4 4 3 4 3 3
CIG13 9 9 9 8 9 6 5 4 14 13 12 9
CoverOVCOVCOVCOVCOVCOVCOVCOVCOVCOVCOVCOVCOVC
FltCatMVFRIFRIFRIFRIFRIFRIFRIFRLIFRMVFRMVFRMVFRIFR
WX-RA-RA-RA-RA-RA-RA BR-RA BR-RA BR-RA BR-RA BR-RA BR-RA BR-RA BR
WDir1201300000002040300360
WSpd4 3 3 3 3 0 0 0 4 3 4 0 4
WGst-- -- -- -- -- -- -- -- -- -- -- -- --
Raw hourly METARs
KEWR 142205Z 12004KT 10SM -RA BKN013 BKN040 OVC080 09/07 A3034 RMK AO2 RAB2155 P0000 T00940072
KEWR 142251Z 13003KT 10SM -RA BKN009 BKN014 OVC050 09/08 A3034 RMK AO2 RAB2155 SLP274 P0001 T00940078
KEWR 142351Z VRB03KT 10SM -RA BKN009 BKN014 OVC070 09/08 A3033 RMK AO2 SLP270 P0000 60001 T00940078 10100 20094 58004
KEWR 150051Z VRB03KT 10SM -RA BKN009 OVC014 09/08 A3031 RMK AO2 SLP264 P0000 T00890078
KEWR 150151Z VRB03KT 7SM -RA BKN008 BKN050 OVC075 09/08 A3030 RMK AO2 SLP260 P0001 T00890083
KEWR 150251Z 00000KT 6SM -RA BR BKN009 BKN027 OVC090 09/09 A3029 RMK AO2 SLP256 P0003 60004 T00890089 56014
KEWR 150351Z 00000KT 5SM -RA BR BKN006 BKN020 OVC070 09/09 A3027 RMK AO2 SLP250 P0003 T00890089
KEWR 150451Z 00000KT 4SM -RA BR BKN005 OVC012 09/09 A3024 RMK AO2 SLP239 P0004 T00940089 401000028
KEWR 150551Z 02004KT 4SM -RA BR BKN004 BKN024 OVC031 09/08 A3022 RMK AO2 SLP233 P0003 60014 T00890083 10094 20089 58023 $
KEWR 150651Z 04003KT 3SM -RA BR SCT004 OVC014 09/09 A3022 RMK AO2 SLP232 P0004 T00890089 $
KEWR 150751Z 03004KT 4SM -RA BR SCT005 BKN013 OVC023 09/09 A3021 RMK AO2 SLP231 P0003 T00890089 $
KEWR 150851Z 00000KT 3SM -RA BR SCT007 OVC012 09/09 A3020 RMK AO2 SLP225 P0003 60010 T00890089 58008 $
KEWR 150951Z 36004KT 3SM -RA BR FEW003 OVC009 09/08 A3017 RMK AO2 SLP216 P0002 T00890083 $



Page loaded:  10:56 UTC  |   02:56 AM Pacific  |   03:56 AM Mountain  |   04:56 AM Central  |   05:56 AM Eastern

 

ADVISORIES

FORECASTS

FORECASTS

OBSERVATIONS

USER TOOLS

ABOUT US